sensor_id;sensor_type;location;lat;lon;timestamp;P1;durP1;ratioP1;P2;durP2;ratioP2
8919;SDS011;4495;42.644;23.274;2024-03-07T00:00:07;35.83;;;16.10;;
8919;SDS011;4495;42.644;23.274;2024-03-07T00:02:45;34.80;;;15.95;;
8919;SDS011;4495;42.644;23.274;2024-03-07T00:05:13;30.50;;;14.23;;
8919;SDS011;4495;42.644;23.274;2024-03-07T00:07:39;34.30;;;16.17;;
8919;SDS011;4495;42.644;23.274;2024-03-07T00:10:05;30.50;;;14.50;;
8919;SDS011;4495;42.644;23.274;2024-03-07T00:12:35;35.17;;;16.40;;
8919;SDS011;4495;42.644;23.274;2024-03-07T00:15:02;31.85;;;15.38;;
8919;SDS011;4495;42.644;23.274;2024-03-07T00:17:28;33.58;;;16.02;;
8919;SDS011;4495;42.644;23.274;2024-03-07T00:19:53;34.17;;;15.40;;
8919;SDS011;4495;42.644;23.274;2024-03-07T00:22:19;33.55;;;15.60;;
8919;SDS011;4495;42.644;23.274;2024-03-07T00:24:46;28.63;;;14.55;;
8919;SDS011;4495;42.644;23.274;2024-03-07T00:27:12;38.10;;;15.13;;
8919;SDS011;4495;42.644;23.274;2024-03-07T00:29:39;31.83;;;16.70;;
8919;SDS011;4495;42.644;23.274;2024-03-07T00:32:05;34.83;;;15.27;;
8919;SDS011;4495;42.644;23.274;2024-03-07T00:34:31;38.47;;;17.02;;
8919;SDS011;4495;42.644;23.274;2024-03-07T00:36:57;34.78;;;16.42;;
8919;SDS011;4495;42.644;23.274;2024-03-07T00:39:24;32.83;;;16.02;;
8919;SDS011;4495;42.644;23.274;2024-03-07T00:41:50;35.08;;;15.10;;
8919;SDS011;4495;42.644;23.274;2024-03-07T00:44:15;35.30;;;15.80;;
8919;SDS011;4495;42.644;23.274;2024-03-07T00:46:41;31.60;;;14.23;;
8919;SDS011;4495;42.644;23.274;2024-03-07T00:49:06;32.22;;;15.27;;
8919;SDS011;4495;42.644;23.274;2024-03-07T00:51:32;32.55;;;14.93;;
8919;SDS011;4495;42.644;23.274;2024-03-07T00:53:59;26.02;;;13.93;;
8919;SDS011;4495;42.644;23.274;2024-03-07T00:56:24;26.83;;;13.75;;
8919;SDS011;4495;42.644;23.274;2024-03-07T00:58:50;28.67;;;13.85;;
8919;SDS011;4495;42.644;23.274;2024-03-07T01:01:16;29.25;;;13.88;;
8919;SDS011;4495;42.644;23.274;2024-03-07T01:03:44;29.05;;;12.80;;
8919;SDS011;4495;42.644;23.274;2024-03-07T01:06:10;30.63;;;13.07;;
8919;SDS011;4495;42.644;23.274;2024-03-07T01:08:36;26.58;;;13.25;;
8919;SDS011;4495;42.644;23.274;2024-03-07T01:11:02;31.08;;;13.30;;
8919;SDS011;4495;42.644;23.274;2024-03-07T01:13:43;31.02;;;13.57;;
8919;SDS011;4495;42.644;23.274;2024-03-07T01:16:09;27.27;;;13.02;;
8919;SDS011;4495;42.644;23.274;2024-03-07T01:18:34;50.35;;;14.32;;
8919;SDS011;4495;42.644;23.274;2024-03-07T01:21:02;25.13;;;11.15;;
8919;SDS011;4495;42.644;23.274;2024-03-07T01:23:28;22.58;;;11.80;;
8919;SDS011;4495;42.644;23.274;2024-03-07T01:25:57;25.40;;;11.23;;
8919;SDS011;4495;42.644;23.274;2024-03-07T01:28:23;24.75;;;11.52;;
8919;SDS011;4495;42.644;23.274;2024-03-07T01:30:50;23.88;;;11.35;;
8919;SDS011;4495;42.644;23.274;2024-03-07T01:33:15;21.90;;;10.93;;
8919;SDS011;4495;42.644;23.274;2024-03-07T01:35:41;24.10;;;11.57;;
8919;SDS011;4495;42.644;23.274;2024-03-07T01:38:06;35.40;;;12.63;;
8919;SDS011;4495;42.644;23.274;2024-03-07T01:40:33;22.88;;;10.90;;
8919;SDS011;4495;42.644;23.274;2024-03-07T01:43:00;21.95;;;10.82;;
8919;SDS011;4495;42.644;23.274;2024-03-07T01:45:26;23.30;;;10.98;;
8919;SDS011;4495;42.644;23.274;2024-03-07T01:47:52;23.63;;;11.20;;
8919;SDS011;4495;42.644;23.274;2024-03-07T01:50:18;20.45;;;9.80;;
8919;SDS011;4495;42.644;23.274;2024-03-07T01:52:43;20.85;;;9.75;;
8919;SDS011;4495;42.644;23.274;2024-03-07T01:55:09;20.40;;;10.63;;
8919;SDS011;4495;42.644;23.274;2024-03-07T01:57:40;22.92;;;10.63;;
8919;SDS011;4495;42.644;23.274;2024-03-07T02:00:06;19.98;;;9.63;;
8919;SDS011;4495;42.644;23.274;2024-03-07T02:02:32;23.40;;;11.55;;
8919;SDS011;4495;42.644;23.274;2024-03-07T02:04:59;18.33;;;7.97;;
8919;SDS011;4495;42.644;23.274;2024-03-07T02:07:24;18.17;;;9.63;;
8919;SDS011;4495;42.644;23.274;2024-03-07T02:09:58;11.52;;;5.75;;
8919;SDS011;4495;42.644;23.274;2024-03-07T02:12:34;9.10;;;4.90;;
8919;SDS011;4495;42.644;23.274;2024-03-07T02:14:59;12.38;;;5.82;;
8919;SDS011;4495;42.644;23.274;2024-03-07T02:17:25;11.50;;;5.30;;
8919;SDS011;4495;42.644;23.274;2024-03-07T02:19:51;8.88;;;4.82;;
8919;SDS011;4495;42.644;23.274;2024-03-07T02:22:19;10.27;;;4.90;;
8919;SDS011;4495;42.644;23.274;2024-03-07T02:24:46;12.43;;;4.88;;
8919;SDS011;4495;42.644;23.274;2024-03-07T02:27:12;11.57;;;5.63;;
8919;SDS011;4495;42.644;23.274;2024-03-07T02:29:39;9.73;;;5.07;;
8919;SDS011;4495;42.644;23.274;2024-03-07T02:32:07;9.98;;;4.90;;
8919;SDS011;4495;42.644;23.274;2024-03-07T02:34:34;9.18;;;4.47;;
8919;SDS011;4495;42.644;23.274;2024-03-07T02:37:00;11.02;;;5.63;;
8919;SDS011;4495;42.644;23.274;2024-03-07T02:39:26;11.25;;;5.70;;
8919;SDS011;4495;42.644;23.274;2024-03-07T02:41:51;10.32;;;5.22;;
8919;SDS011;4495;42.644;23.274;2024-03-07T02:44:17;12.90;;;6.30;;
8919;SDS011;4495;42.644;23.274;2024-03-07T02:46:42;17.77;;;7.85;;
8919;SDS011;4495;42.644;23.274;2024-03-07T02:49:08;18.73;;;8.70;;
8919;SDS011;4495;42.644;23.274;2024-03-07T02:51:34;20.70;;;8.80;;
8919;SDS011;4495;42.644;23.274;2024-03-07T02:54:00;13.02;;;5.85;;
8919;SDS011;4495;42.644;23.274;2024-03-07T02:56:26;9.73;;;4.70;;
8919;SDS011;4495;42.644;23.274;2024-03-07T02:58:51;10.30;;;4.57;;
8919;SDS011;4495;42.644;23.274;2024-03-07T03:01:19;9.35;;;4.18;;
8919;SDS011;4495;42.644;23.274;2024-03-07T03:03:45;10.07;;;4.22;;
8919;SDS011;4495;42.644;23.274;2024-03-07T03:06:10;9.95;;;4.50;;
8919;SDS011;4495;42.644;23.274;2024-03-07T03:08:36;7.10;;;3.95;;
8919;SDS011;4495;42.644;23.274;2024-03-07T03:11:02;6.57;;;3.83;;
8919;SDS011;4495;42.644;23.274;2024-03-07T03:13:28;8.15;;;3.90;;
8919;SDS011;4495;42.644;23.274;2024-03-07T03:15:54;13.20;;;6.32;;
8919;SDS011;4495;42.644;23.274;2024-03-07T03:18:22;11.43;;;5.53;;
8919;SDS011;4495;42.644;23.274;2024-03-07T03:20:48;10.75;;;5.28;;
8919;SDS011;4495;42.644;23.274;2024-03-07T03:23:14;9.48;;;5.07;;
8919;SDS011;4495;42.644;23.274;2024-03-07T03:25:40;11.48;;;5.13;;
8919;SDS011;4495;42.644;23.274;2024-03-07T03:28:06;8.95;;;3.85;;
8919;SDS011;4495;42.644;23.274;2024-03-07T03:30:35;11.10;;;4.50;;
8919;SDS011;4495;42.644;23.274;2024-03-07T03:33:04;8.77;;;4.60;;
8919;SDS011;4495;42.644;23.274;2024-03-07T03:35:31;10.07;;;5.10;;
8919;SDS011;4495;42.644;23.274;2024-03-07T03:37:57;11.93;;;4.85;;
8919;SDS011;4495;42.644;23.274;2024-03-07T03:40:22;10.43;;;4.20;;
8919;SDS011;4495;42.644;23.274;2024-03-07T03:42:48;11.32;;;4.53;;
8919;SDS011;4495;42.644;23.274;2024-03-07T03:45:13;10.50;;;4.85;;
8919;SDS011;4495;42.644;23.274;2024-03-07T03:47:43;10.43;;;4.82;;
8919;SDS011;4495;42.644;23.274;2024-03-07T03:50:09;9.13;;;4.88;;
8919;SDS011;4495;42.644;23.274;2024-03-07T03:52:36;10.07;;;4.45;;
8919;SDS011;4495;42.644;23.274;2024-03-07T03:55:06;9.98;;;3.75;;
8919;SDS011;4495;42.644;23.274;2024-03-07T03:57:34;7.32;;;3.47;;
8919;SDS011;4495;42.644;23.274;2024-03-07T04:00:00;5.80;;;2.90;;
8919;SDS011;4495;42.644;23.274;2024-03-07T04:02:26;6.05;;;2.80;;
8919;SDS011;4495;42.644;23.274;2024-03-07T04:04:52;6.70;;;2.47;;
8919;SDS011;4495;42.644;23.274;2024-03-07T04:07:18;6.97;;;3.42;;
8919;SDS011;4495;42.644;23.274;2024-03-07T04:09:47;6.00;;;3.13;;
8919;SDS011;4495;42.644;23.274;2024-03-07T04:12:13;5.35;;;3.08;;
8919;SDS011;4495;42.644;23.274;2024-03-07T04:14:42;6.60;;;3.80;;
8919;SDS011;4495;42.644;23.274;2024-03-07T04:17:08;7.00;;;3.55;;
8919;SDS011;4495;42.644;23.274;2024-03-07T04:19:37;7.28;;;3.65;;
8919;SDS011;4495;42.644;23.274;2024-03-07T04:22:05;6.53;;;3.80;;
8919;SDS011;4495;42.644;23.274;2024-03-07T04:24:33;8.65;;;4.53;;
8919;SDS011;4495;42.644;23.274;2024-03-07T04:26:59;7.53;;;4.20;;
8919;SDS011;4495;42.644;23.274;2024-03-07T04:29:25;8.27;;;4.28;;
8919;SDS011;4495;42.644;23.274;2024-03-07T04:31:53;8.20;;;4.15;;
8919;SDS011;4495;42.644;23.274;2024-03-07T04:34:19;11.77;;;5.60;;
8919;SDS011;4495;42.644;23.274;2024-03-07T04:36:44;12.75;;;5.78;;
8919;SDS011;4495;42.644;23.274;2024-03-07T04:39:10;12.10;;;5.97;;
8919;SDS011;4495;42.644;23.274;2024-03-07T04:42:02;10.85;;;5.55;;
8919;SDS011;4495;42.644;23.274;2024-03-07T04:44:30;11.07;;;5.03;;
8919;SDS011;4495;42.644;23.274;2024-03-07T04:46:56;11.15;;;5.35;;
8919;SDS011;4495;42.644;23.274;2024-03-07T04:51:51;10.85;;;5.20;;
8919;SDS011;4495;42.644;23.274;2024-03-07T04:54:17;9.63;;;4.68;;
8919;SDS011;4495;42.644;23.274;2024-03-07T04:56:46;8.20;;;4.57;;
8919;SDS011;4495;42.644;23.274;2024-03-07T04:59:12;12.05;;;5.97;;
8919;SDS011;4495;42.644;23.274;2024-03-07T05:01:38;14.98;;;6.03;;
8919;SDS011;4495;42.644;23.274;2024-03-07T05:04:05;10.25;;;5.10;;
8919;SDS011;4495;42.644;23.274;2024-03-07T05:06:31;8.98;;;5.05;;
8919;SDS011;4495;42.644;23.274;2024-03-07T05:08:59;10.30;;;5.18;;
8919;SDS011;4495;42.644;23.274;2024-03-07T05:11:26;9.98;;;4.75;;
8919;SDS011;4495;42.644;23.274;2024-03-07T05:13:52;10.23;;;5.15;;
8919;SDS011;4495;42.644;23.274;2024-03-07T05:16:18;10.77;;;5.18;;
8919;SDS011;4495;42.644;23.274;2024-03-07T05:18:44;11.35;;;5.40;;
8919;SDS011;4495;42.644;23.274;2024-03-07T05:21:10;7.28;;;4.13;;
8919;SDS011;4495;42.644;23.274;2024-03-07T05:23:54;8.73;;;4.18;;
8919;SDS011;4495;42.644;23.274;2024-03-07T05:26:20;6.57;;;3.28;;
8919;SDS011;4495;42.644;23.274;2024-03-07T05:28:45;6.68;;;3.28;;
8919;SDS011;4495;42.644;23.274;2024-03-07T05:31:11;7.82;;;3.88;;
8919;SDS011;4495;42.644;23.274;2024-03-07T05:33:37;7.63;;;3.90;;
8919;SDS011;4495;42.644;23.274;2024-03-07T05:36:06;7.18;;;3.53;;
8919;SDS011;4495;42.644;23.274;2024-03-07T05:38:44;7.88;;;4.05;;
8919;SDS011;4495;42.644;23.274;2024-03-07T05:41:12;4.95;;;2.60;;
8919;SDS011;4495;42.644;23.274;2024-03-07T05:43:38;3.65;;;1.95;;
8919;SDS011;4495;42.644;23.274;2024-03-07T05:46:04;4.50;;;2.28;;
8919;SDS011;4495;42.644;23.274;2024-03-07T05:48:32;5.80;;;2.70;;
8919;SDS011;4495;42.644;23.274;2024-03-07T05:50:58;4.93;;;2.60;;
8919;SDS011;4495;42.644;23.274;2024-03-07T05:53:24;3.38;;;1.98;;
8919;SDS011;4495;42.644;23.274;2024-03-07T05:55:50;3.78;;;2.58;;
8919;SDS011;4495;42.644;23.274;2024-03-07T05:58:15;3.63;;;2.13;;
8919;SDS011;4495;42.644;23.274;2024-03-07T06:00:44;4.82;;;2.40;;
8919;SDS011;4495;42.644;23.274;2024-03-07T06:03:14;4.38;;;2.85;;
8919;SDS011;4495;42.644;23.274;2024-03-07T06:05:46;4.32;;;2.00;;
8919;SDS011;4495;42.644;23.274;2024-03-07T06:08:15;4.57;;;1.50;;
8919;SDS011;4495;42.644;23.274;2024-03-07T06:10:43;3.88;;;1.73;;
8919;SDS011;4495;42.644;23.274;2024-03-07T06:13:13;2.20;;;1.38;;
8919;SDS011;4495;42.644;23.274;2024-03-07T06:15:42;4.75;;;1.95;;
8919;SDS011;4495;42.644;23.274;2024-03-07T06:18:09;5.97;;;2.63;;
8919;SDS011;4495;42.644;23.274;2024-03-07T06:20:41;6.05;;;2.58;;
8919;SDS011;4495;42.644;23.274;2024-03-07T06:23:09;7.40;;;3.60;;
8919;SDS011;4495;42.644;23.274;2024-03-07T06:25:37;4.97;;;2.92;;
8919;SDS011;4495;42.644;23.274;2024-03-07T06:28:12;5.85;;;3.10;;
8919;SDS011;4495;42.644;23.274;2024-03-07T06:30:38;5.50;;;3.13;;
8919;SDS011;4495;42.644;23.274;2024-03-07T06:33:05;3.85;;;2.25;;
8919;SDS011;4495;42.644;23.274;2024-03-07T06:35:31;6.43;;;3.00;;
8919;SDS011;4495;42.644;23.274;2024-03-07T06:37:57;5.25;;;2.42;;
8919;SDS011;4495;42.644;23.274;2024-03-07T06:40:22;4.53;;;3.00;;
8919;SDS011;4495;42.644;23.274;2024-03-07T06:42:48;6.15;;;3.10;;
8919;SDS011;4495;42.644;23.274;2024-03-07T06:45:14;4.93;;;2.70;;
8919;SDS011;4495;42.644;23.274;2024-03-07T06:47:41;3.80;;;1.90;;
8919;SDS011;4495;42.644;23.274;2024-03-07T06:50:06;4.13;;;1.88;;
8919;SDS011;4495;42.644;23.274;2024-03-07T06:52:34;5.10;;;2.58;;
8919;SDS011;4495;42.644;23.274;2024-03-07T06:55:00;7.10;;;3.80;;
8919;SDS011;4495;42.644;23.274;2024-03-07T06:57:27;3.42;;;2.35;;
8919;SDS011;4495;42.644;23.274;2024-03-07T06:59:53;6.75;;;2.72;;
8919;SDS011;4495;42.644;23.274;2024-03-07T07:02:20;3.67;;;2.25;;
8919;SDS011;4495;42.644;23.274;2024-03-07T07:04:45;3.47;;;2.03;;
8919;SDS011;4495;42.644;23.274;2024-03-07T07:07:12;3.00;;;1.92;;
8919;SDS011;4495;42.644;23.274;2024-03-07T07:09:39;5.53;;;2.50;;
8919;SDS011;4495;42.644;23.274;2024-03-07T07:12:05;5.60;;;3.38;;
8919;SDS011;4495;42.644;23.274;2024-03-07T07:14:31;6.90;;;3.58;;
8919;SDS011;4495;42.644;23.274;2024-03-07T07:16:57;5.68;;;3.28;;
8919;SDS011;4495;42.644;23.274;2024-03-07T07:21:49;8.70;;;3.78;;
8919;SDS011;4495;42.644;23.274;2024-03-07T07:24:18;5.63;;;3.90;;
8919;SDS011;4495;42.644;23.274;2024-03-07T07:26:48;8.65;;;4.72;;
8919;SDS011;4495;42.644;23.274;2024-03-07T07:29:17;10.05;;;5.13;;
8919;SDS011;4495;42.644;23.274;2024-03-07T07:31:43;5.40;;;3.33;;
8919;SDS011;4495;42.644;23.274;2024-03-07T07:34:10;5.53;;;3.10;;
8919;SDS011;4495;42.644;23.274;2024-03-07T07:36:36;5.78;;;3.58;;
8919;SDS011;4495;42.644;23.274;2024-03-07T07:39:01;6.82;;;3.70;;
8919;SDS011;4495;42.644;23.274;2024-03-07T07:41:28;6.10;;;3.88;;
8919;SDS011;4495;42.644;23.274;2024-03-07T07:43:53;8.50;;;4.35;;
8919;SDS011;4495;42.644;23.274;2024-03-07T07:46:19;6.38;;;3.83;;
8919;SDS011;4495;42.644;23.274;2024-03-07T07:48:45;6.35;;;3.80;;
8919;SDS011;4495;42.644;23.274;2024-03-07T07:51:10;6.45;;;3.80;;
8919;SDS011;4495;42.644;23.274;2024-03-07T07:53:36;5.35;;;3.28;;
8919;SDS011;4495;42.644;23.274;2024-03-07T07:58:29;6.28;;;3.72;;
8919;SDS011;4495;42.644;23.274;2024-03-07T08:00:55;5.78;;;3.33;;
8919;SDS011;4495;42.644;23.274;2024-03-07T08:03:20;7.82;;;3.03;;
8919;SDS011;4495;42.644;23.274;2024-03-07T08:05:47;4.25;;;3.17;;
8919;SDS011;4495;42.644;23.274;2024-03-07T08:08:12;5.65;;;3.10;;
8919;SDS011;4495;42.644;23.274;2024-03-07T08:10:41;8.95;;;3.28;;
8919;SDS011;4495;42.644;23.274;2024-03-07T08:13:07;5.75;;;3.20;;
8919;SDS011;4495;42.644;23.274;2024-03-07T08:15:33;7.00;;;4.00;;
8919;SDS011;4495;42.644;23.274;2024-03-07T08:17:59;6.00;;;3.70;;
8919;SDS011;4495;42.644;23.274;2024-03-07T08:20:25;7.85;;;4.25;;
8919;SDS011;4495;42.644;23.274;2024-03-07T08:22:54;7.03;;;3.88;;
8919;SDS011;4495;42.644;23.274;2024-03-07T08:25:25;7.55;;;4.40;;
8919;SDS011;4495;42.644;23.274;2024-03-07T08:27:52;8.10;;;4.00;;
8919;SDS011;4495;42.644;23.274;2024-03-07T08:30:19;6.82;;;4.18;;
8919;SDS011;4495;42.644;23.274;2024-03-07T08:32:45;7.57;;;4.50;;
8919;SDS011;4495;42.644;23.274;2024-03-07T08:35:14;7.15;;;4.22;;
8919;SDS011;4495;42.644;23.274;2024-03-07T08:37:44;10.18;;;5.25;;
8919;SDS011;4495;42.644;23.274;2024-03-07T08:40:11;7.72;;;4.20;;
8919;SDS011;4495;42.644;23.274;2024-03-07T08:42:44;7.00;;;4.50;;
8919;SDS011;4495;42.644;23.274;2024-03-07T08:45:10;7.95;;;4.75;;
8919;SDS011;4495;42.644;23.274;2024-03-07T08:47:36;8.65;;;5.55;;
8919;SDS011;4495;42.644;23.274;2024-03-07T08:50:03;8.43;;;4.57;;
8919;SDS011;4495;42.644;23.274;2024-03-07T08:52:33;10.55;;;6.03;;
8919;SDS011;4495;42.644;23.274;2024-03-07T08:55:03;8.82;;;4.60;;
8919;SDS011;4495;42.644;23.274;2024-03-07T08:57:29;7.63;;;4.68;;
8919;SDS011;4495;42.644;23.274;2024-03-07T08:59:55;8.13;;;5.40;;
8919;SDS011;4495;42.644;23.274;2024-03-07T09:02:21;8.27;;;5.45;;
8919;SDS011;4495;42.644;23.274;2024-03-07T09:04:46;7.22;;;3.80;;
8919;SDS011;4495;42.644;23.274;2024-03-07T09:07:12;9.32;;;5.70;;
8919;SDS011;4495;42.644;23.274;2024-03-07T09:09:39;8.70;;;5.68;;
8919;SDS011;4495;42.644;23.274;2024-03-07T09:12:08;9.00;;;5.97;;
8919;SDS011;4495;42.644;23.274;2024-03-07T09:14:34;8.80;;;5.82;;
8919;SDS011;4495;42.644;23.274;2024-03-07T09:17:00;8.82;;;5.22;;
8919;SDS011;4495;42.644;23.274;2024-03-07T09:19:26;9.95;;;5.80;;
8919;SDS011;4495;42.644;23.274;2024-03-07T09:21:52;9.40;;;5.32;;
8919;SDS011;4495;42.644;23.274;2024-03-07T09:24:18;8.35;;;5.43;;
8919;SDS011;4495;42.644;23.274;2024-03-07T09:26:47;10.85;;;6.40;;
8919;SDS011;4495;42.644;23.274;2024-03-07T09:29:17;7.25;;;4.40;;
8919;SDS011;4495;42.644;23.274;2024-03-07T09:31:43;6.55;;;4.65;;
8919;SDS011;4495;42.644;23.274;2024-03-07T09:34:10;9.23;;;5.45;;
8919;SDS011;4495;42.644;23.274;2024-03-07T09:36:37;9.57;;;4.78;;
8919;SDS011;4495;42.644;23.274;2024-03-07T09:39:04;9.73;;;5.93;;
8919;SDS011;4495;42.644;23.274;2024-03-07T09:41:29;9.73;;;5.72;;
8919;SDS011;4495;42.644;23.274;2024-03-07T09:43:55;8.90;;;4.72;;
8919;SDS011;4495;42.644;23.274;2024-03-07T09:46:21;8.52;;;4.90;;
8919;SDS011;4495;42.644;23.274;2024-03-07T09:48:49;8.57;;;4.63;;
8919;SDS011;4495;42.644;23.274;2024-03-07T09:51:18;10.50;;;5.30;;
8919;SDS011;4495;42.644;23.274;2024-03-07T09:53:48;6.60;;;4.43;;
8919;SDS011;4495;42.644;23.274;2024-03-07T09:56:16;7.22;;;4.85;;
8919;SDS011;4495;42.644;23.274;2024-03-07T09:58:45;6.78;;;5.38;;
8919;SDS011;4495;42.644;23.274;2024-03-07T10:01:14;7.68;;;4.82;;
8919;SDS011;4495;42.644;23.274;2024-03-07T10:03:41;8.45;;;4.57;;
8919;SDS011;4495;42.644;23.274;2024-03-07T10:06:10;6.78;;;4.53;;
8919;SDS011;4495;42.644;23.274;2024-03-07T10:08:35;7.60;;;4.70;;
8919;SDS011;4495;42.644;23.274;2024-03-07T10:11:01;6.75;;;4.55;;
8919;SDS011;4495;42.644;23.274;2024-03-07T10:13:27;6.78;;;4.40;;
8919;SDS011;4495;42.644;23.274;2024-03-07T10:15:53;7.32;;;4.60;;
8919;SDS011;4495;42.644;23.274;2024-03-07T10:18:25;6.70;;;4.53;;
8919;SDS011;4495;42.644;23.274;2024-03-07T10:20:55;8.05;;;4.72;;
8919;SDS011;4495;42.644;23.274;2024-03-07T10:23:21;6.43;;;4.22;;
8919;SDS011;4495;42.644;23.274;2024-03-07T10:25:47;7.28;;;4.30;;
8919;SDS011;4495;42.644;23.274;2024-03-07T10:28:13;6.97;;;4.38;;
8919;SDS011;4495;42.644;23.274;2024-03-07T10:30:41;6.97;;;4.47;;
8919;SDS011;4495;42.644;23.274;2024-03-07T10:33:09;7.93;;;4.90;;
8919;SDS011;4495;42.644;23.274;2024-03-07T10:35:37;9.27;;;5.68;;
8919;SDS011;4495;42.644;23.274;2024-03-07T10:38:03;8.80;;;5.63;;
8919;SDS011;4495;42.644;23.274;2024-03-07T10:40:32;9.48;;;5.07;;
8919;SDS011;4495;42.644;23.274;2024-03-07T10:42:58;9.75;;;5.05;;
8919;SDS011;4495;42.644;23.274;2024-03-07T10:45:30;7.57;;;5.28;;
8919;SDS011;4495;42.644;23.274;2024-03-07T10:48:00;7.97;;;5.38;;
8919;SDS011;4495;42.644;23.274;2024-03-07T10:58:33;10.80;;;5.63;;
8919;SDS011;4495;42.644;23.274;2024-03-07T11:01:02;8.75;;;5.18;;
8919;SDS011;4495;42.644;23.274;2024-03-07T11:03:34;9.07;;;4.85;;
8919;SDS011;4495;42.644;23.274;2024-03-07T11:06:00;7.95;;;5.10;;
8919;SDS011;4495;42.644;23.274;2024-03-07T11:08:31;8.90;;;5.15;;
8919;SDS011;4495;42.644;23.274;2024-03-07T11:11:00;9.57;;;5.05;;
8919;SDS011;4495;42.644;23.274;2024-03-07T11:13:26;10.88;;;5.22;;
8919;SDS011;4495;42.644;23.274;2024-03-07T11:15:53;9.05;;;5.57;;
8919;SDS011;4495;42.644;23.274;2024-03-07T11:18:23;8.82;;;5.32;;
8919;SDS011;4495;42.644;23.274;2024-03-07T11:20:49;8.32;;;5.18;;
8919;SDS011;4495;42.644;23.274;2024-03-07T11:26:03;8.10;;;4.55;;
8919;SDS011;4495;42.644;23.274;2024-03-07T11:28:32;6.63;;;4.47;;
8919;SDS011;4495;42.644;23.274;2024-03-07T11:31:13;6.35;;;4.13;;
8919;SDS011;4495;42.644;23.274;2024-03-07T11:36:44;7.65;;;3.72;;
8919;SDS011;4495;42.644;23.274;2024-03-07T11:42:26;4.03;;;3.03;;
8919;SDS011;4495;42.644;23.274;2024-03-07T11:44:58;5.60;;;3.50;;
8919;SDS011;4495;42.644;23.274;2024-03-07T11:47:25;4.15;;;2.75;;
8919;SDS011;4495;42.644;23.274;2024-03-07T11:49:54;6.00;;;2.70;;
8919;SDS011;4495;42.644;23.274;2024-03-07T11:52:22;6.95;;;2.83;;
8919;SDS011;4495;42.644;23.274;2024-03-07T11:54:48;4.63;;;2.72;;
8919;SDS011;4495;42.644;23.274;2024-03-07T11:57:17;5.22;;;2.97;;
8919;SDS011;4495;42.644;23.274;2024-03-07T11:59:57;4.75;;;2.83;;
8919;SDS011;4495;42.644;23.274;2024-03-07T12:02:26;5.35;;;3.15;;
8919;SDS011;4495;42.644;23.274;2024-03-07T12:04:52;5.38;;;2.75;;
8919;SDS011;4495;42.644;23.274;2024-03-07T12:07:18;5.97;;;2.60;;
8919;SDS011;4495;42.644;23.274;2024-03-07T12:09:50;6.35;;;3.05;;
8919;SDS011;4495;42.644;23.274;2024-03-07T12:12:18;5.55;;;3.03;;
8919;SDS011;4495;42.644;23.274;2024-03-07T12:14:54;5.78;;;2.60;;
8919;SDS011;4495;42.644;23.274;2024-03-07T12:17:20;6.63;;;3.40;;
8919;SDS011;4495;42.644;23.274;2024-03-07T12:19:47;5.07;;;3.05;;
8919;SDS011;4495;42.644;23.274;2024-03-07T12:22:18;5.95;;;3.30;;
8919;SDS011;4495;42.644;23.274;2024-03-07T12:24:48;5.50;;;3.00;;
8919;SDS011;4495;42.644;23.274;2024-03-07T12:27:27;6.85;;;3.20;;
8919;SDS011;4495;42.644;23.274;2024-03-07T12:29:53;4.97;;;3.22;;
8919;SDS011;4495;42.644;23.274;2024-03-07T12:32:19;6.47;;;3.08;;
8919;SDS011;4495;42.644;23.274;2024-03-07T12:34:44;8.35;;;3.95;;
8919;SDS011;4495;42.644;23.274;2024-03-07T12:37:13;5.28;;;2.85;;
8919;SDS011;4495;42.644;23.274;2024-03-07T12:39:41;7.10;;;2.85;;
8919;SDS011;4495;42.644;23.274;2024-03-07T12:42:17;5.78;;;3.03;;
8919;SDS011;4495;42.644;23.274;2024-03-07T12:44:44;7.30;;;3.10;;
8919;SDS011;4495;42.644;23.274;2024-03-07T12:47:14;7.28;;;3.67;;
8919;SDS011;4495;42.644;23.274;2024-03-07T12:49:40;5.85;;;3.00;;
8919;SDS011;4495;42.644;23.274;2024-03-07T12:52:09;6.60;;;2.90;;
8919;SDS011;4495;42.644;23.274;2024-03-07T12:54:36;4.63;;;2.88;;
8919;SDS011;4495;42.644;23.274;2024-03-07T12:57:13;5.43;;;2.53;;
8919;SDS011;4495;42.644;23.274;2024-03-07T12:59:38;3.60;;;2.20;;
8919;SDS011;4495;42.644;23.274;2024-03-07T13:02:06;4.38;;;3.03;;
8919;SDS011;4495;42.644;23.274;2024-03-07T13:04:32;6.05;;;2.38;;
8919;SDS011;4495;42.644;23.274;2024-03-07T13:06:58;3.72;;;2.35;;
8919;SDS011;4495;42.644;23.274;2024-03-07T13:09:27;7.18;;;3.05;;
8919;SDS011;4495;42.644;23.274;2024-03-07T13:11:56;6.35;;;3.30;;
8919;SDS011;4495;42.644;23.274;2024-03-07T13:14:25;5.03;;;2.90;;
8919;SDS011;4495;42.644;23.274;2024-03-07T13:16:55;5.53;;;3.22;;
8919;SDS011;4495;42.644;23.274;2024-03-07T13:19:20;5.20;;;2.92;;
8919;SDS011;4495;42.644;23.274;2024-03-07T13:21:46;6.15;;;3.13;;
8919;SDS011;4495;42.644;23.274;2024-03-07T13:24:14;5.45;;;2.95;;
8919;SDS011;4495;42.644;23.274;2024-03-07T13:26:39;2.25;;;0.90;;
8919;SDS011;4495;42.644;23.274;2024-03-07T13:29:07;3.38;;;1.40;;
8919;SDS011;4495;42.644;23.274;2024-03-07T13:31:32;2.05;;;1.00;;
8919;SDS011;4495;42.644;23.274;2024-03-07T13:33:58;3.83;;;1.77;;
8919;SDS011;4495;42.644;23.274;2024-03-07T13:36:26;4.85;;;2.03;;
8919;SDS011;4495;42.644;23.274;2024-03-07T13:38:52;7.72;;;2.72;;
8919;SDS011;4495;42.644;23.274;2024-03-07T13:41:20;5.13;;;2.53;;
8919;SDS011;4495;42.644;23.274;2024-03-07T13:43:47;3.30;;;1.73;;
8919;SDS011;4495;42.644;23.274;2024-03-07T13:46:13;3.95;;;1.40;;
8919;SDS011;4495;42.644;23.274;2024-03-07T13:48:40;1.88;;;1.30;;
8919;SDS011;4495;42.644;23.274;2024-03-07T13:51:07;3.67;;;1.45;;
8919;SDS011;4495;42.644;23.274;2024-03-07T13:53:34;3.50;;;2.00;;
8919;SDS011;4495;42.644;23.274;2024-03-07T14:20:59;5.47;;;2.90;;
8919;SDS011;4495;42.644;23.274;2024-03-07T14:30:50;6.25;;;3.65;;
8919;SDS011;4495;42.644;23.274;2024-03-07T14:33:05;5.97;;;3.83;;
8919;SDS011;4495;42.644;23.274;2024-03-07T14:40:30;5.78;;;3.03;;
8919;SDS011;4495;42.644;23.274;2024-03-07T14:42:56;7.43;;;3.03;;
8919;SDS011;4495;42.644;23.274;2024-03-07T14:45:27;4.90;;;2.80;;
8919;SDS011;4495;42.644;23.274;2024-03-07T14:48:00;6.25;;;3.08;;
8919;SDS011;4495;42.644;23.274;2024-03-07T14:50:27;4.38;;;2.67;;
8919;SDS011;4495;42.644;23.274;2024-03-07T14:52:55;4.78;;;2.33;;
8919;SDS011;4495;42.644;23.274;2024-03-07T14:55:20;4.35;;;2.10;;
8919;SDS011;4495;42.644;23.274;2024-03-07T14:57:46;3.67;;;1.85;;
8919;SDS011;4495;42.644;23.274;2024-03-07T15:00:12;3.65;;;2.20;;
8919;SDS011;4495;42.644;23.274;2024-03-07T15:02:47;2.70;;;1.83;;
8919;SDS011;4495;42.644;23.274;2024-03-07T15:05:15;6.30;;;3.42;;
8919;SDS011;4495;42.644;23.274;2024-03-07T15:07:43;9.88;;;5.53;;
8919;SDS011;4495;42.644;23.274;2024-03-07T15:10:17;14.32;;;6.85;;
8919;SDS011;4495;42.644;23.274;2024-03-07T15:12:56;19.17;;;10.63;;
8919;SDS011;4495;42.644;23.274;2024-03-07T15:15:22;15.48;;;8.40;;
8919;SDS011;4495;42.644;23.274;2024-03-07T15:17:49;13.02;;;7.07;;
8919;SDS011;4495;42.644;23.274;2024-03-07T15:20:16;10.00;;;5.20;;
8919;SDS011;4495;42.644;23.274;2024-03-07T15:22:57;8.95;;;5.43;;
8919;SDS011;4495;42.644;23.274;2024-03-07T15:25:24;10.23;;;5.03;;
8919;SDS011;4495;42.644;23.274;2024-03-07T15:27:50;8.25;;;4.70;;
8919;SDS011;4495;42.644;23.274;2024-03-07T15:30:17;10.13;;;5.47;;
8919;SDS011;4495;42.644;23.274;2024-03-07T15:35:10;10.38;;;5.30;;
8919;SDS011;4495;42.644;23.274;2024-03-07T15:37:37;13.13;;;7.20;;
8919;SDS011;4495;42.644;23.274;2024-03-07T15:40:07;11.35;;;6.75;;
8919;SDS011;4495;42.644;23.274;2024-03-07T15:42:37;13.70;;;6.07;;
8919;SDS011;4495;42.644;23.274;2024-03-07T15:45:04;13.80;;;5.55;;
8919;SDS011;4495;42.644;23.274;2024-03-07T15:47:36;10.95;;;5.50;;
8919;SDS011;4495;42.644;23.274;2024-03-07T15:50:04;13.20;;;6.07;;
8919;SDS011;4495;42.644;23.274;2024-03-07T15:52:30;9.73;;;5.65;;
8919;SDS011;4495;42.644;23.274;2024-03-07T15:54:59;12.63;;;6.13;;
8919;SDS011;4495;42.644;23.274;2024-03-07T15:57:26;12.93;;;6.05;;
8919;SDS011;4495;42.644;23.274;2024-03-07T15:59:52;11.32;;;5.97;;